sensor_id;sensor_type;location;lat;lon;timestamp;P1;P2;P0
77411;PMS7003;66484;49.968;19.140;2023-06-04T00:01:39;11.25;7.75;4.75
77411;PMS7003;66484;49.968;19.140;2023-06-04T00:04:07;8.25;8.25;5.75
77411;PMS7003;66484;49.968;19.140;2023-06-04T00:06:34;9.50;8.50;5.50
77411;PMS7003;66484;49.968;19.140;2023-06-04T00:09:02;7.50;7.50;6.00
77411;PMS7003;66484;49.968;19.140;2023-06-04T00:11:30;8.50;8.50;6.00
77411;PMS7003;66484;49.968;19.140;2023-06-04T00:14:00;11.75;9.75;7.50
77411;PMS7003;66484;49.968;19.140;2023-06-04T00:16:27;10.25;10.25;8.00
77411;PMS7003;66484;49.968;19.140;2023-06-04T00:18:56;12.50;12.50;8.00
77411;PMS7003;66484;49.968;19.140;2023-06-04T00:21:23;13.50;10.50;7.50
77411;PMS7003;66484;49.968;19.140;2023-06-04T00:23:50;10.00;8.25;6.00
77411;PMS7003;66484;49.968;19.140;2023-06-04T00:26:18;8.00;8.00;6.00
77411;PMS7003;66484;49.968;19.140;2023-06-04T00:28:45;5.50;5.50;3.00
77411;PMS7003;66484;49.968;19.140;2023-06-04T00:31:12;10.00;10.00;6.00
77411;PMS7003;66484;49.968;19.140;2023-06-04T00:33:40;8.00;6.00;5.25
77411;PMS7003;66484;49.968;19.140;2023-06-04T00:36:07;15.50;10.75;5.00
77411;PMS7003;66484;49.968;19.140;2023-06-04T00:38:34;7.50;6.50;5.00
77411;PMS7003;66484;49.968;19.140;2023-06-04T00:41:02;6.00;6.00;5.00
77411;PMS7003;66484;49.968;19.140;2023-06-04T00:43:29;12.00;8.00;5.75
77411;PMS7003;66484;49.968;19.140;2023-06-04T00:45:58;10.50;9.00;5.75
77411;PMS7003;66484;49.968;19.140;2023-06-04T00:48:25;7.00;5.25;4.25
77411;PMS7003;66484;49.968;19.140;2023-06-04T00:50:57;4.50;4.00;3.50
77411;PMS7003;66484;49.968;19.140;2023-06-04T00:53:24;9.25;5.50;5.25
77411;PMS7003;66484;49.968;19.140;2023-06-04T00:55:52;10.50;9.00;5.25
77411;PMS7003;66484;49.968;19.140;2023-06-04T00:58:19;8.25;6.50;5.25
77411;PMS7003;66484;49.968;19.140;2023-06-04T01:00:47;8.75;7.50;5.00
77411;PMS7003;66484;49.968;19.140;2023-06-04T01:03:16;8.75;7.00;5.00
77411;PMS7003;66484;49.968;19.140;2023-06-04T01:06:03;10.50;8.75;6.50
77411;PMS7003;66484;49.968;19.140;2023-06-04T01:08:36;8.50;8.25;5.00
77411;PMS7003;66484;49.968;19.140;2023-06-04T01:11:03;10.25;8.50;6.00
77411;PMS7003;66484;49.968;19.140;2023-06-04T01:13:31;10.50;8.75;6.50
77411;PMS7003;66484;49.968;19.140;2023-06-04T01:15:59;9.75;9.75;6.50
77411;PMS7003;66484;49.968;19.140;2023-06-04T01:18:27;8.75;8.25;5.00
77411;PMS7003;66484;49.968;19.140;2023-06-04T01:20:57;11.50;9.75;8.00
77411;PMS7003;66484;49.968;19.140;2023-06-04T01:26:23;9.75;7.25;5.50
77411;PMS7003;66484;49.968;19.140;2023-06-04T01:28:52;6.25;6.25;5.25
77411;PMS7003;66484;49.968;19.140;2023-06-04T01:31:20;8.25;8.25;5.25
77411;PMS7003;66484;49.968;19.140;2023-06-04T01:33:53;7.50;7.50;6.00
77411;PMS7003;66484;49.968;19.140;2023-06-04T01:36:21;8.25;5.75;4.00
77411;PMS7003;66484;49.968;19.140;2023-06-04T01:38:48;7.00;7.00;5.25
77411;PMS7003;66484;49.968;19.140;2023-06-04T01:41:15;13.25;10.75;6.75
77411;PMS7003;66484;49.968;19.140;2023-06-04T01:43:42;5.00;5.00;3.00
77411;PMS7003;66484;49.968;19.140;2023-06-04T01:46:09;13.75;13.75;9.00
77411;PMS7003;66484;49.968;19.140;2023-06-04T01:48:36;12.25;11.00;7.25
77411;PMS7003;66484;49.968;19.140;2023-06-04T01:51:05;8.75;7.00;5.50
77411;PMS7003;66484;49.968;19.140;2023-06-04T01:53:33;11.25;10.00;6.50
77411;PMS7003;66484;49.968;19.140;2023-06-04T01:56:00;12.50;8.25;4.75
77411;PMS7003;66484;49.968;19.140;2023-06-04T01:58:28;8.25;8.25;5.25
77411;PMS7003;66484;49.968;19.140;2023-06-04T02:00:56;11.00;9.75;5.75
77411;PMS7003;66484;49.968;19.140;2023-06-04T02:03:27;8.75;7.75;5.25
77411;PMS7003;66484;49.968;19.140;2023-06-04T02:05:54;8.75;8.25;5.75
77411;PMS7003;66484;49.968;19.140;2023-06-04T02:08:21;8.25;6.50;4.25
77411;PMS7003;66484;49.968;19.140;2023-06-04T02:10:52;9.00;8.00;5.00
77411;PMS7003;66484;49.968;19.140;2023-06-04T02:13:19;10.25;9.50;6.00
77411;PMS7003;66484;49.968;19.140;2023-06-04T02:15:46;7.00;5.25;3.00
77411;PMS7003;66484;49.968;19.140;2023-06-04T02:18:15;10.00;9.00;8.00
77411;PMS7003;66484;49.968;19.140;2023-06-04T02:20:48;12.75;10.50;6.00
77411;PMS7003;66484;49.968;19.140;2023-06-04T02:23:17;8.25;8.25;6.00
77411;PMS7003;66484;49.968;19.140;2023-06-04T02:25:45;11.75;9.75;7.75
77411;PMS7003;66484;49.968;19.140;2023-06-04T02:28:13;11.75;11.75;8.75
77411;PMS7003;66484;49.968;19.140;2023-06-04T02:30:40;14.25;13.75;9.25
77411;PMS7003;66484;49.968;19.140;2023-06-04T02:33:08;13.75;11.00;7.00
77411;PMS7003;66484;49.968;19.140;2023-06-04T02:35:37;10.25;9.50;7.75
77411;PMS7003;66484;49.968;19.140;2023-06-04T02:38:04;10.50;10.00;8.25
77411;PMS7003;66484;49.968;19.140;2023-06-04T02:40:32;12.00;10.25;8.25
77411;PMS7003;66484;49.968;19.140;2023-06-04T02:42:59;10.00;9.00;7.50
77411;PMS7003;66484;49.968;19.140;2023-06-04T02:45:26;13.00;9.50;8.00
77411;PMS7003;66484;49.968;19.140;2023-06-04T02:47:56;10.25;10.25;8.25
77411;PMS7003;66484;49.968;19.140;2023-06-04T02:50:23;11.00;9.25;7.00
77411;PMS7003;66484;49.968;19.140;2023-06-04T02:52:51;10.25;10.25;8.00
77411;PMS7003;66484;49.968;19.140;2023-06-04T02:55:18;9.50;9.50;6.50
77411;PMS7003;66484;49.968;19.140;2023-06-04T02:57:45;13.00;10.00;8.00
77411;PMS7003;66484;49.968;19.140;2023-06-04T03:00:13;12.00;11.00;8.00
77411;PMS7003;66484;49.968;19.140;2023-06-04T03:02:42;11.00;9.50;7.25
77411;PMS7003;66484;49.968;19.140;2023-06-04T03:05:11;9.75;9.00;6.75
77411;PMS7003;66484;49.968;19.140;2023-06-04T03:07:40;11.75;11.00;9.50
77411;PMS7003;66484;49.968;19.140;2023-06-04T03:10:10;12.00;11.00;8.50
77411;PMS7003;66484;49.968;19.140;2023-06-04T03:12:38;8.50;8.50;7.25
77411;PMS7003;66484;49.968;19.140;2023-06-04T03:15:06;14.50;10.75;9.75
77411;PMS7003;66484;49.968;19.140;2023-06-04T03:17:34;9.75;9.75;7.00
77411;PMS7003;66484;49.968;19.140;2023-06-04T03:20:02;12.75;11.50;9.00
77411;PMS7003;66484;49.968;19.140;2023-06-04T03:22:31;11.00;10.50;9.25
77411;PMS7003;66484;49.968;19.140;2023-06-04T03:25:00;9.75;9.75;6.00
77411;PMS7003;66484;49.968;19.140;2023-06-04T03:27:29;11.00;10.00;7.00
77411;PMS7003;66484;49.968;19.140;2023-06-04T03:29:57;15.00;12.50;9.25
77411;PMS7003;66484;49.968;19.140;2023-06-04T03:32:25;12.25;10.75;9.00
77411;PMS7003;66484;49.968;19.140;2023-06-04T03:34:52;8.50;8.50;6.00
77411;PMS7003;66484;49.968;19.140;2023-06-04T03:37:19;12.00;11.25;6.50
77411;PMS7003;66484;49.968;19.140;2023-06-04T03:39:46;11.00;10.00;7.50
77411;PMS7003;66484;49.968;19.140;2023-06-04T03:42:14;9.75;9.75;5.50
77411;PMS7003;66484;49.968;19.140;2023-06-04T03:44:42;12.00;10.00;6.25
77411;PMS7003;66484;49.968;19.140;2023-06-04T03:47:09;11.00;10.00;7.25
77411;PMS7003;66484;49.968;19.140;2023-06-04T03:49:36;9.75;9.75;6.50
77411;PMS7003;66484;49.968;19.140;2023-06-04T03:52:04;7.00;7.00;5.00
77411;PMS7003;66484;49.968;19.140;2023-06-04T03:54:31;9.00;9.00;6.00
77411;PMS7003;66484;49.968;19.140;2023-06-04T03:56:58;9.00;6.67;6.00
77411;PMS7003;66484;49.968;19.140;2023-06-04T03:59:26;8.67;8.67;6.67
77411;PMS7003;66484;49.968;19.140;2023-06-04T04:01:54;9.00;7.67;6.33
77411;PMS7003;66484;49.968;19.140;2023-06-04T04:04:21;11.00;11.00;6.67
77411;PMS7003;66484;49.968;19.140;2023-06-04T04:06:48;10.00;10.00;7.00
77411;PMS7003;66484;49.968;19.140;2023-06-04T04:09:16;12.00;9.00;7.00
77411;PMS7003;66484;49.968;19.140;2023-06-04T04:11:43;10.00;10.00;7.33
77411;PMS7003;66484;49.968;19.140;2023-06-04T04:14:10;10.67;8.00;5.00
77411;PMS7003;66484;49.968;19.140;2023-06-04T04:16:37;9.67;9.67;7.00
77411;PMS7003;66484;49.968;19.140;2023-06-04T04:19:04;10.33;8.33;6.67
77411;PMS7003;66484;49.968;19.140;2023-06-04T04:21:35;8.33;7.00;5.00
77411;PMS7003;66484;49.968;19.140;2023-06-04T04:24:05;7.33;7.33;6.00
77411;PMS7003;66484;49.968;19.140;2023-06-04T04:26:34;11.67;10.00;7.00
77411;PMS7003;66484;49.968;19.140;2023-06-04T04:29:01;10.33;9.33;6.00
77411;PMS7003;66484;49.968;19.140;2023-06-04T04:31:28;6.00;6.00;5.00
77411;PMS7003;66484;49.968;19.140;2023-06-04T04:33:57;8.33;7.33;6.00
77411;PMS7003;66484;49.968;19.140;2023-06-04T04:36:24;11.67;10.00;6.00
77411;PMS7003;66484;49.968;19.140;2023-06-04T04:38:52;7.33;7.00;5.33
77411;PMS7003;66484;49.968;19.140;2023-06-04T04:41:21;7.00;6.67;4.33
77411;PMS7003;66484;49.968;19.140;2023-06-04T04:43:52;8.00;7.00;5.33
77411;PMS7003;66484;49.968;19.140;2023-06-04T04:46:19;7.67;7.00;6.00
77411;PMS7003;66484;49.968;19.140;2023-06-04T04:48:46;7.33;6.00;4.67
77411;PMS7003;66484;49.968;19.140;2023-06-04T04:51:14;6.33;6.33;5.33
77411;PMS7003;66484;49.968;19.140;2023-06-04T04:53:41;8.00;8.00;6.00
77411;PMS7003;66484;49.968;19.140;2023-06-04T04:56:09;7.00;6.00;5.00
77411;PMS7003;66484;49.968;19.140;2023-06-04T04:58:36;12.33;11.33;6.00
77411;PMS7003;66484;49.968;19.140;2023-06-04T05:01:04;11.00;11.00;7.67
77411;PMS7003;66484;49.968;19.140;2023-06-04T05:03:31;7.67;7.67;6.00
77411;PMS7003;66484;49.968;19.140;2023-06-04T05:05:59;4.00;4.00;3.00
77411;PMS7003;66484;49.968;19.140;2023-06-04T05:08:26;11.00;8.00;5.67
77411;PMS7003;66484;49.968;19.140;2023-06-04T05:10:53;10.33;7.33;4.67
77411;PMS7003;66484;49.968;19.140;2023-06-04T05:13:21;7.00;6.00;4.67
77411;PMS7003;66484;49.968;19.140;2023-06-04T05:15:49;7.33;6.33;5.00
77411;PMS7003;66484;49.968;19.140;2023-06-04T05:18:19;6.00;6.00;4.00
77411;PMS7003;66484;49.968;19.140;2023-06-04T05:20:55;6.00;6.00;4.67
77411;PMS7003;66484;49.968;19.140;2023-06-04T05:23:23;8.67;7.00;5.00
77411;PMS7003;66484;49.968;19.140;2023-06-04T05:25:51;5.67;5.67;4.67
77411;PMS7003;66484;49.968;19.140;2023-06-04T05:28:18;9.67;7.00;6.00
77411;PMS7003;66484;49.968;19.140;2023-06-04T05:30:47;7.00;7.00;5.67
77411;PMS7003;66484;49.968;19.140;2023-06-04T05:33:15;9.00;7.00;6.00
77411;PMS7003;66484;49.968;19.140;2023-06-04T05:35:46;7.00;7.00;6.00
77411;PMS7003;66484;49.968;19.140;2023-06-04T05:38:14;6.00;6.00;5.00
77411;PMS7003;66484;49.968;19.140;2023-06-04T05:40:53;7.33;6.67;6.00
77411;PMS7003;66484;49.968;19.140;2023-06-04T05:43:21;6.33;5.00;4.00
77411;PMS7003;66484;49.968;19.140;2023-06-04T05:45:48;8.33;7.00;5.67
77411;PMS7003;66484;49.968;19.140;2023-06-04T05:48:16;6.00;6.00;5.00
77411;PMS7003;66484;49.968;19.140;2023-06-04T05:50:44;6.67;5.67;5.00
77411;PMS7003;66484;49.968;19.140;2023-06-04T05:53:13;10.67;7.00;5.00
77411;PMS7003;66484;49.968;19.140;2023-06-04T05:55:41;6.00;6.00;5.00
77411;PMS7003;66484;49.968;19.140;2023-06-04T05:58:08;7.33;5.67;4.00
77411;PMS7003;66484;49.968;19.140;2023-06-04T06:00:36;6.00;6.00;5.33
77411;PMS7003;66484;49.968;19.140;2023-06-04T06:03:03;4.67;4.67;4.33
77411;PMS7003;66484;49.968;19.140;2023-06-04T06:05:33;6.67;5.67;5.00
77411;PMS7003;66484;49.968;19.140;2023-06-04T06:08:01;7.00;6.00;4.00
77411;PMS7003;66484;49.968;19.140;2023-06-04T06:10:29;7.00;6.00;4.00
77411;PMS7003;66484;49.968;19.140;2023-06-04T06:12:56;7.33;6.00;4.33
77411;PMS7003;66484;49.968;19.140;2023-06-04T06:15:23;3.00;3.00;3.00
77411;PMS7003;66484;49.968;19.140;2023-06-04T06:17:51;6.67;6.67;5.00
77411;PMS7003;66484;49.968;19.140;2023-06-04T06:20:18;7.00;5.00;5.00
77411;PMS7003;66484;49.968;19.140;2023-06-04T06:22:45;4.67;4.67;3.00
77411;PMS7003;66484;49.968;19.140;2023-06-04T06:25:13;6.67;6.67;3.67
77411;PMS7003;66484;49.968;19.140;2023-06-04T06:27:43;8.33;6.33;5.33
77411;PMS7003;66484;49.968;19.140;2023-06-04T06:30:10;5.00;5.00;4.00
77411;PMS7003;66484;49.968;19.140;2023-06-04T06:32:37;6.33;6.33;5.00
77411;PMS7003;66484;49.968;19.140;2023-06-04T06:35:04;3.67;2.67;2.33
77411;PMS7003;66484;49.968;19.140;2023-06-04T06:37:32;5.67;5.67;4.00
77411;PMS7003;66484;49.968;19.140;2023-06-04T06:40:00;8.33;5.33;4.00
77411;PMS7003;66484;49.968;19.140;2023-06-04T06:42:31;5.00;3.67;3.00
77411;PMS7003;66484;49.968;19.140;2023-06-04T06:44:59;6.33;6.33;4.00
77411;PMS7003;66484;49.968;19.140;2023-06-04T06:47:26;6.33;5.33;4.67
77411;PMS7003;66484;49.968;19.140;2023-06-04T06:49:53;5.33;5.00;4.00
77411;PMS7003;66484;49.968;19.140;2023-06-04T06:52:21;5.67;5.67;4.00
77411;PMS7003;66484;49.968;19.140;2023-06-04T06:54:48;3.33;3.00;2.67
77411;PMS7003;66484;49.968;19.140;2023-06-04T06:57:16;7.00;7.00;6.00
77411;PMS7003;66484;49.968;19.140;2023-06-04T06:59:43;7.00;5.67;3.67
77411;PMS7003;66484;49.968;19.140;2023-06-04T07:02:11;4.00;4.00;3.33
77411;PMS7003;66484;49.968;19.140;2023-06-04T07:04:41;8.67;5.67;3.00
77411;PMS7003;66484;49.968;19.140;2023-06-04T07:07:08;6.00;6.00;4.00
77411;PMS7003;66484;49.968;19.140;2023-06-04T07:09:35;9.33;8.33;4.00
77411;PMS7003;66484;49.968;19.140;2023-06-04T07:12:05;4.67;4.67;3.67
77411;PMS7003;66484;49.968;19.140;2023-06-04T07:14:33;4.67;4.67;4.00
77411;PMS7003;66484;49.968;19.140;2023-06-04T07:17:00;5.67;5.33;4.00
77411;PMS7003;66484;49.968;19.140;2023-06-04T07:19:28;5.00;4.00;3.33
77411;PMS7003;66484;49.968;19.140;2023-06-04T07:21:55;4.25;4.00;3.00
77411;PMS7003;66484;49.968;19.140;2023-06-04T07:24:23;3.00;3.00;2.67
77411;PMS7003;66484;49.968;19.140;2023-06-04T07:26:51;2.25;2.25;2.25
77411;PMS7003;66484;49.968;19.140;2023-06-04T07:29:19;2.75;2.50;2.25
77411;PMS7003;66484;49.968;19.140;2023-06-04T07:31:47;3.00;2.50;2.00
77411;PMS7003;66484;49.968;19.140;2023-06-04T07:34:14;5.00;4.00;4.00
77411;PMS7003;66484;49.968;19.140;2023-06-04T07:36:42;3.75;2.00;2.00
77411;PMS7003;66484;49.968;19.140;2023-06-04T07:39:09;2.75;2.75;2.00
77411;PMS7003;66484;49.968;19.140;2023-06-04T07:41:36;5.00;4.25;4.00
77411;PMS7003;66484;49.968;19.140;2023-06-04T07:44:03;2.00;2.00;1.50
77411;PMS7003;66484;49.968;19.140;2023-06-04T07:46:31;3.25;3.25;2.50
77411;PMS7003;66484;49.968;19.140;2023-06-04T07:48:59;5.00;5.00;4.00
77411;PMS7003;66484;49.968;19.140;2023-06-04T07:51:26;2.50;2.50;1.50
77411;PMS7003;66484;49.968;19.140;2023-06-04T07:53:54;5.00;2.50;2.00
77411;PMS7003;66484;49.968;19.140;2023-06-04T07:56:21;6.00;5.00;3.25
77411;PMS7003;66484;49.968;19.140;2023-06-04T07:58:48;2.50;2.50;2.00
77411;PMS7003;66484;49.968;19.140;2023-06-04T08:01:16;4.50;4.00;3.00
77411;PMS7003;66484;49.968;19.140;2023-06-04T08:03:43;0.00;0.00;0.00
77411;PMS7003;66484;49.968;19.140;2023-06-04T08:06:11;3.00;3.00;2.75
77411;PMS7003;66484;49.968;19.140;2023-06-04T08:08:44;1.75;1.75;1.25
77411;PMS7003;66484;49.968;19.140;2023-06-04T08:11:15;2.00;2.00;1.00
77411;PMS7003;66484;49.968;19.140;2023-06-04T08:13:42;4.75;3.00;2.00
77411;PMS7003;66484;49.968;19.140;2023-06-04T08:16:09;2.25;1.75;1.25
77411;PMS7003;66484;49.968;19.140;2023-06-04T08:18:38;3.00;3.00;2.25
77411;PMS7003;66484;49.968;19.140;2023-06-04T08:21:10;1.50;1.50;1.50
77411;PMS7003;66484;49.968;19.140;2023-06-04T08:23:38;3.50;2.00;1.00
77411;PMS7003;66484;49.968;19.140;2023-06-04T08:26:06;1.75;1.75;1.00
77411;PMS7003;66484;49.968;19.140;2023-06-04T08:28:35;3.00;2.00;2.00
77411;PMS7003;66484;49.968;19.140;2023-06-04T08:31:02;1.50;1.50;1.25
77411;PMS7003;66484;49.968;19.140;2023-06-04T08:33:30;4.25;3.00;2.00
77411;PMS7003;66484;49.968;19.140;2023-06-04T08:35:57;5.00;2.00;1.25
77411;PMS7003;66484;49.968;19.140;2023-06-04T08:38:24;3.50;2.00;2.00
77411;PMS7003;66484;49.968;19.140;2023-06-04T08:40:52;3.25;1.25;1.00
77411;PMS7003;66484;49.968;19.140;2023-06-04T08:43:20;1.50;1.50;1.00
77411;PMS7003;66484;49.968;19.140;2023-06-04T08:45:48;1.75;1.75;1.50
77411;PMS7003;66484;49.968;19.140;2023-06-04T08:48:17;1.00;0.50;0.50
77411;PMS7003;66484;49.968;19.140;2023-06-04T08:50:46;2.00;2.00;1.75
77411;PMS7003;66484;49.968;19.140;2023-06-04T08:53:15;1.00;1.00;0.00
77411;PMS7003;66484;49.968;19.140;2023-06-04T08:55:44;4.00;1.75;1.75
77411;PMS7003;66484;49.968;19.140;2023-06-04T08:58:12;0.75;0.75;0.50
77411;PMS7003;66484;49.968;19.140;2023-06-04T09:00:42;2.00;2.00;1.25
77411;PMS7003;66484;49.968;19.140;2023-06-04T09:03:10;1.00;1.00;1.00
77411;PMS7003;66484;49.968;19.140;2023-06-04T09:05:41;1.75;1.75;1.00
77411;PMS7003;66484;49.968;19.140;2023-06-04T09:08:14;2.00;1.75;0.75
77411;PMS7003;66484;49.968;19.140;2023-06-04T09:10:44;2.00;2.00;1.75
77411;PMS7003;66484;49.968;19.140;2023-06-04T09:13:13;2.00;2.00;2.00
77411;PMS7003;66484;49.968;19.140;2023-06-04T09:15:40;3.25;3.25;2.00
77411;PMS7003;66484;49.968;19.140;2023-06-04T09:18:07;2.00;2.00;2.00
77411;PMS7003;66484;49.968;19.140;2023-06-04T09:20:35;2.00;1.00;1.00
77411;PMS7003;66484;49.968;19.140;2023-06-04T09:23:11;2.00;2.00;1.25
77411;PMS7003;66484;49.968;19.140;2023-06-04T09:25:42;2.50;2.50;1.50
77411;PMS7003;66484;49.968;19.140;2023-06-04T09:28:10;0.50;0.50;0.00
77411;PMS7003;66484;49.968;19.140;2023-06-04T09:30:38;2.75;2.75;2.00
77411;PMS7003;66484;49.968;19.140;2023-06-04T09:33:08;2.00;2.00;1.00
77411;PMS7003;66484;49.968;19.140;2023-06-04T09:35:36;3.00;3.00;1.25
77411;PMS7003;66484;49.968;19.140;2023-06-04T09:38:04;1.75;1.75;0.75
77411;PMS7003;66484;49.968;19.140;2023-06-04T09:40:36;2.00;2.00;1.00
77411;PMS7003;66484;49.968;19.140;2023-06-04T09:43:04;3.00;3.00;2.00
77411;PMS7003;66484;49.968;19.140;2023-06-04T09:45:33;3.25;3.25;2.00
77411;PMS7003;66484;49.968;19.140;2023-06-04T09:48:03;2.50;2.50;2.00
77411;PMS7003;66484;49.968;19.140;2023-06-04T09:50:35;2.00;2.00;1.00
77411;PMS7003;66484;49.968;19.140;2023-06-04T09:53:15;1.00;1.00;1.00
77411;PMS7003;66484;49.968;19.140;2023-06-04T09:55:54;2.50;2.00;1.00
77411;PMS7003;66484;49.968;19.140;2023-06-04T09:58:25;2.00;2.00;1.25
77411;PMS7003;66484;49.968;19.140;2023-06-04T10:00:57;3.50;3.50;2.75
77411;PMS7003;66484;49.968;19.140;2023-06-04T10:03:29;3.00;3.00;2.00
77411;PMS7003;66484;49.968;19.140;2023-06-04T10:06:01;2.00;2.00;1.25
77411;PMS7003;66484;49.968;19.140;2023-06-04T10:08:30;1.25;1.25;1.25
77411;PMS7003;66484;49.968;19.140;2023-06-04T10:10:59;2.00;1.00;0.25
77411;PMS7003;66484;49.968;19.140;2023-06-04T10:14:17;1.75;1.25;1.00
77411;PMS7003;66484;49.968;19.140;2023-06-04T10:16:26;2.00;2.00;2.00
77411;PMS7003;66484;49.968;19.140;2023-06-04T10:19:00;3.00;3.00;3.00
77411;PMS7003;66484;49.968;19.140;2023-06-04T10:21:28;2.00;2.00;2.00
77411;PMS7003;66484;49.968;19.140;2023-06-04T10:24:01;3.00;2.75;2.50
77411;PMS7003;66484;49.968;19.140;2023-06-04T10:26:29;2.50;2.50;2.00
77411;PMS7003;66484;49.968;19.140;2023-06-04T10:28:57;1.25;1.25;1.00
77411;PMS7003;66484;49.968;19.140;2023-06-04T10:31:25;2.50;2.50;1.25
77411;PMS7003;66484;49.968;19.140;2023-06-04T10:33:53;2.25;1.50;1.00
77411;PMS7003;66484;49.968;19.140;2023-06-04T10:36:22;1.75;1.25;1.00
77411;PMS7003;66484;49.968;19.140;2023-06-04T10:38:51;2.50;2.50;1.25
77411;PMS7003;66484;49.968;19.140;2023-06-04T10:41:22;4.25;3.75;2.25
77411;PMS7003;66484;49.968;19.140;2023-06-04T10:43:51;3.00;3.00;1.00
77411;PMS7003;66484;49.968;19.140;2023-06-04T10:46:19;4.00;3.25;2.25
77411;PMS7003;66484;49.968;19.140;2023-06-04T10:48:48;2.00;2.00;2.00
77411;PMS7003;66484;49.968;19.140;2023-06-04T10:51:31;2.00;2.00;1.25
77411;PMS7003;66484;49.968;19.140;2023-06-04T10:54:00;4.25;3.25;2.00
77411;PMS7003;66484;49.968;19.140;2023-06-04T10:56:29;14.25;10.75;7.75
77411;PMS7003;66484;49.968;19.140;2023-06-04T10:58:59;2.50;2.00;1.00
77411;PMS7003;66484;49.968;19.140;2023-06-04T11:01:28;4.00;4.00;3.75
77411;PMS7003;66484;49.968;19.140;2023-06-04T11:03:56;0.50;0.50;0.25
77411;PMS7003;66484;49.968;19.140;2023-06-04T11:06:24;2.00;2.00;1.00
77411;PMS7003;66484;49.968;19.140;2023-06-04T11:09:01;1.75;1.75;1.25
77411;PMS7003;66484;49.968;19.140;2023-06-04T11:11:30;4.00;2.50;1.00
77411;PMS7003;66484;49.968;19.140;2023-06-04T11:14:10;2.00;2.00;1.00
77411;PMS7003;66484;49.968;19.140;2023-06-04T11:16:43;2.00;2.00;1.50
77411;PMS7003;66484;49.968;19.140;2023-06-04T11:19:10;2.00;2.00;1.25
77411;PMS7003;66484;49.968;19.140;2023-06-04T11:21:40;1.00;1.00;1.00
77411;PMS7003;66484;49.968;19.140;2023-06-04T11:24:08;3.50;3.50;1.00
77411;PMS7003;66484;49.968;19.140;2023-06-04T11:26:36;3.25;2.00;2.00
77411;PMS7003;66484;49.968;19.140;2023-06-04T11:29:10;2.75;2.75;2.75
77411;PMS7003;66484;49.968;19.140;2023-06-04T11:34:10;39.00;34.75;19.75
77411;PMS7003;66484;49.968;19.140;2023-06-04T11:36:40;3.00;2.75;1.75
77411;PMS7003;66484;49.968;19.140;2023-06-04T11:39:08;3.00;3.00;3.00
77411;PMS7003;66484;49.968;19.140;2023-06-04T11:41:35;3.00;3.00;2.00
77411;PMS7003;66484;49.968;19.140;2023-06-04T11:44:04;4.25;3.25;3.00
77411;PMS7003;66484;49.968;19.140;2023-06-04T11:46:40;2.00;2.00;2.00
77411;PMS7003;66484;49.968;19.140;2023-06-04T11:49:17;3.50;3.50;2.75
77411;PMS7003;66484;49.968;19.140;2023-06-04T11:51:46;2.25;2.25;1.50
77411;PMS7003;66484;49.968;19.140;2023-06-04T11:54:17;3.50;3.50;3.00
77411;PMS7003;66484;49.968;19.140;2023-06-04T11:56:46;1.75;1.75;1.00
77411;PMS7003;66484;49.968;19.140;2023-06-04T11:59:16;4.50;2.75;2.50
77411;PMS7003;66484;49.968;19.140;2023-06-04T12:01:44;3.00;3.00;2.00
77411;PMS7003;66484;49.968;19.140;2023-06-04T12:06:51;4.00;2.75;2.00
77411;PMS7003;66484;49.968;19.140;2023-06-04T12:09:24;1.75;1.75;1.00
77411;PMS7003;66484;49.968;19.140;2023-06-04T12:11:58;2.00;2.00;1.75
77411;PMS7003;66484;49.968;19.140;2023-06-04T12:14:27;3.50;3.50;2.50
77411;PMS7003;66484;49.968;19.140;2023-06-04T12:17:06;3.00;3.00;2.25
77411;PMS7003;66484;49.968;19.140;2023-06-04T12:19:48;2.50;2.50;2.25
77411;PMS7003;66484;49.968;19.140;2023-06-04T12:22:17;3.00;1.00;1.00
77411;PMS7003;66484;49.968;19.140;2023-06-04T12:24:49;4.00;4.00;3.25
77411;PMS7003;66484;49.968;19.140;2023-06-04T12:27:21;2.50;2.50;2.00
77411;PMS7003;66484;49.968;19.140;2023-06-04T12:30:00;3.75;3.75;3.50
77411;PMS7003;66484;49.968;19.140;2023-06-04T12:32:34;2.75;2.00;2.00
77411;PMS7003;66484;49.968;19.140;2023-06-04T12:35:02;2.25;2.25;1.75
77411;PMS7003;66484;49.968;19.140;2023-06-04T12:37:29;1.50;1.50;1.00
77411;PMS7003;66484;49.968;19.140;2023-06-04T12:39:57;3.50;3.00;2.75
77411;PMS7003;66484;49.968;19.140;2023-06-04T12:42:25;3.00;3.00;2.75
77411;PMS7003;66484;49.968;19.140;2023-06-04T12:44:54;2.50;2.50;2.50
77411;PMS7003;66484;49.968;19.140;2023-06-04T12:47:22;4.50;2.50;2.25
77411;PMS7003;66484;49.968;19.140;2023-06-04T12:49:49;2.75;2.75;1.25
77411;PMS7003;66484;49.968;19.140;2023-06-04T12:52:17;4.50;3.00;2.25
77411;PMS7003;66484;49.968;19.140;2023-06-04T12:54:45;4.00;4.00;3.75
77411;PMS7003;66484;49.968;19.140;2023-06-04T12:57:13;6.00;6.00;3.50
77411;PMS7003;66484;49.968;19.140;2023-06-04T12:59:41;2.00;2.00;1.25
77411;PMS7003;66484;49.968;19.140;2023-06-04T13:02:09;1.75;1.75;1.50
77411;PMS7003;66484;49.968;19.140;2023-06-04T13:04:36;4.00;4.00;4.00
77411;PMS7003;66484;49.968;19.140;2023-06-04T13:07:04;2.75;2.75;2.00
77411;PMS7003;66484;49.968;19.140;2023-06-04T13:09:32;1.25;1.25;1.25
77411;PMS7003;66484;49.968;19.140;2023-06-04T13:12:02;3.00;1.50;1.25
77411;PMS7003;66484;49.968;19.140;2023-06-04T13:14:30;2.00;2.00;2.00
77411;PMS7003;66484;49.968;19.140;2023-06-04T13:17:00;3.00;3.00;2.00
77411;PMS7003;66484;49.968;19.140;2023-06-04T13:19:46;3.75;2.00;2.00
77411;PMS7003;66484;49.968;19.140;2023-06-04T13:22:14;1.00;1.00;1.00
77411;PMS7003;66484;49.968;19.140;2023-06-04T13:24:42;5.75;5.75;5.00
77411;PMS7003;66484;49.968;19.140;2023-06-04T13:27:10;3.00;3.00;2.00
77411;PMS7003;66484;49.968;19.140;2023-06-04T13:29:37;2.75;2.75;2.25
77411;PMS7003;66484;49.968;19.140;2023-06-04T13:32:08;1.00;1.00;1.00
77411;PMS7003;66484;49.968;19.140;2023-06-04T13:34:37;2.25;2.25;2.00
77411;PMS7003;66484;49.968;19.140;2023-06-04T13:37:05;1.00;1.00;1.00
77411;PMS7003;66484;49.968;19.140;2023-06-04T13:39:33;3.00;2.00;1.75
77411;PMS7003;66484;49.968;19.140;2023-06-04T13:42:01;4.00;3.25;3.00
77411;PMS7003;66484;49.968;19.140;2023-06-04T13:44:28;2.00;2.00;1.00
77411;PMS7003;66484;49.968;19.140;2023-06-04T13:46:58;2.00;2.00;2.00
77411;PMS7003;66484;49.968;19.140;2023-06-04T13:49:26;2.00;2.00;2.00
77411;PMS7003;66484;49.968;19.140;2023-06-04T13:51:53;4.00;3.00;1.75
77411;PMS7003;66484;49.968;19.140;2023-06-04T13:54:21;2.75;1.00;0.00
77411;PMS7003;66484;49.968;19.140;2023-06-04T13:56:49;0.25;0.00;0.00
77411;PMS7003;66484;49.968;19.140;2023-06-04T13:59:16;0.50;0.50;0.00
77411;PMS7003;66484;49.968;19.140;2023-06-04T14:01:44;4.00;4.00;3.00
77411;PMS7003;66484;49.968;19.140;2023-06-04T14:04:11;2.00;2.00;1.75
77411;PMS7003;66484;49.968;19.140;2023-06-04T14:06:40;2.00;2.00;1.50
77411;PMS7003;66484;49.968;19.140;2023-06-04T14:09:07;2.00;2.00;1.00
77411;PMS7003;66484;49.968;19.140;2023-06-04T14:11:37;3.00;2.00;2.00
77411;PMS7003;66484;49.968;19.140;2023-06-04T14:14:06;3.50;2.00;1.50
77411;PMS7003;66484;49.968;19.140;2023-06-04T14:16:35;3.00;3.00;2.00
77411;PMS7003;66484;49.968;19.140;2023-06-04T14:19:02;3.00;2.25;2.00
77411;PMS7003;66484;49.968;19.140;2023-06-04T14:21:29;4.25;3.75;2.75
77411;PMS7003;66484;49.968;19.140;2023-06-04T14:23:56;3.00;3.00;2.00